Terminal Aerodrome Forecast
Issued by NWS

Home | Current Version | Previous Version | Text Only | Print | Product List | Glossary On
Versions: 1 2 3 4 5 6 7 8 9 10 11 12 13 14
833
FTUS46 KSGX 271124
TAFPSP
TAF
KPSP 271124Z 2712/2812 VRB05KT P6SM SKC
     FM271800 34012KT P6SM SKC
     FM272100 32018G28KT P6SM SKC
     FM280600 31010KT P6SM SKC WS020/01025KT=

USA.gov is the U.S. government's official web portal to all federal, state and local government web resources and services.